sensor_id;sensor_type;location;lat;lon;timestamp;temperature;humidity
21037;DHT22;10677;50.942;4.028;2024-02-21T00:02:11;10.60;99.90
21037;DHT22;10677;50.942;4.028;2024-02-21T00:04:37;10.70;99.90
21037;DHT22;10677;50.942;4.028;2024-02-21T00:07:04;10.60;99.90
21037;DHT22;10677;50.942;4.028;2024-02-21T00:09:29;10.70;99.90
21037;DHT22;10677;50.942;4.028;2024-02-21T00:11:55;10.80;99.90
21037;DHT22;10677;50.942;4.028;2024-02-21T00:14:21;10.70;99.90
21037;DHT22;10677;50.942;4.028;2024-02-21T00:16:47;10.70;99.90
21037;DHT22;10677;50.942;4.028;2024-02-21T00:19:12;10.70;99.90
21037;DHT22;10677;50.942;4.028;2024-02-21T00:21:40;10.50;99.90
21037;DHT22;10677;50.942;4.028;2024-02-21T00:24:05;10.60;99.90
21037;DHT22;10677;50.942;4.028;2024-02-21T00:26:31;10.60;99.90
21037;DHT22;10677;50.942;4.028;2024-02-21T00:28:57;10.50;99.90
21037;DHT22;10677;50.942;4.028;2024-02-21T00:31:22;10.60;99.90
21037;DHT22;10677;50.942;4.028;2024-02-21T00:33:48;10.70;99.90
21037;DHT22;10677;50.942;4.028;2024-02-21T00:36:14;10.70;99.90
21037;DHT22;10677;50.942;4.028;2024-02-21T00:38:40;10.70;99.90
21037;DHT22;10677;50.942;4.028;2024-02-21T00:41:06;10.70;99.90
21037;DHT22;10677;50.942;4.028;2024-02-21T00:43:32;10.60;99.90
21037;DHT22;10677;50.942;4.028;2024-02-21T00:45:57;10.60;99.90
21037;DHT22;10677;50.942;4.028;2024-02-21T00:48:23;10.60;99.90
21037;DHT22;10677;50.942;4.028;2024-02-21T00:50:48;10.50;99.90
21037;DHT22;10677;50.942;4.028;2024-02-21T00:53:14;10.50;99.90
21037;DHT22;10677;50.942;4.028;2024-02-21T00:55:40;10.40;99.90
21037;DHT22;10677;50.942;4.028;2024-02-21T00:58:05;10.50;99.90
21037;DHT22;10677;50.942;4.028;2024-02-21T01:00:31;10.60;99.90
21037;DHT22;10677;50.942;4.028;2024-02-21T01:02:57;10.60;99.90
21037;DHT22;10677;50.942;4.028;2024-02-21T01:05:23;10.50;99.90
21037;DHT22;10677;50.942;4.028;2024-02-21T01:07:48;10.40;99.90
21037;DHT22;10677;50.942;4.028;2024-02-21T01:10:14;10.20;99.90
21037;DHT22;10677;50.942;4.028;2024-02-21T01:12:39;10.10;99.90
21037;DHT22;10677;50.942;4.028;2024-02-21T01:15:05;10.00;99.90
21037;DHT22;10677;50.942;4.028;2024-02-21T01:17:31;9.80;99.90
21037;DHT22;10677;50.942;4.028;2024-02-21T01:19:57;9.80;99.90
21037;DHT22;10677;50.942;4.028;2024-02-21T01:22:22;9.70;99.90
21037;DHT22;10677;50.942;4.028;2024-02-21T01:24:48;9.70;99.90
21037;DHT22;10677;50.942;4.028;2024-02-21T01:27:13;9.80;99.90
21037;DHT22;10677;50.942;4.028;2024-02-21T01:29:39;9.80;99.90
21037;DHT22;10677;50.942;4.028;2024-02-21T01:32:05;9.70;99.90
21037;DHT22;10677;50.942;4.028;2024-02-21T01:34:30;9.80;99.90
21037;DHT22;10677;50.942;4.028;2024-02-21T01:36:56;9.80;99.90
21037;DHT22;10677;50.942;4.028;2024-02-21T01:39:22;9.80;99.90
21037;DHT22;10677;50.942;4.028;2024-02-21T01:41:47;9.70;99.90
21037;DHT22;10677;50.942;4.028;2024-02-21T01:44:14;9.70;99.90
21037;DHT22;10677;50.942;4.028;2024-02-21T01:46:39;9.70;99.90
21037;DHT22;10677;50.942;4.028;2024-02-21T01:49:05;9.70;99.90
21037;DHT22;10677;50.942;4.028;2024-02-21T01:51:32;9.60;99.90
21037;DHT22;10677;50.942;4.028;2024-02-21T01:53:58;9.60;99.90
21037;DHT22;10677;50.942;4.028;2024-02-21T01:56:24;9.60;99.90
21037;DHT22;10677;50.942;4.028;2024-02-21T01:58:50;9.70;99.90
21037;DHT22;10677;50.942;4.028;2024-02-21T02:01:16;9.70;99.90
21037;DHT22;10677;50.942;4.028;2024-02-21T02:03:44;9.70;99.90
21037;DHT22;10677;50.942;4.028;2024-02-21T02:06:10;9.70;99.90
21037;DHT22;10677;50.942;4.028;2024-02-21T02:08:36;9.70;99.90
21037;DHT22;10677;50.942;4.028;2024-02-21T02:11:02;9.80;99.90
21037;DHT22;10677;50.942;4.028;2024-02-21T02:13:28;9.80;99.90
21037;DHT22;10677;50.942;4.028;2024-02-21T02:15:54;9.80;99.90
21037;DHT22;10677;50.942;4.028;2024-02-21T02:18:20;9.90;99.90
21037;DHT22;10677;50.942;4.028;2024-02-21T02:20:47;10.00;99.90
21037;DHT22;10677;50.942;4.028;2024-02-21T02:23:30;9.90;99.90
21037;DHT22;10677;50.942;4.028;2024-02-21T02:25:59;9.90;99.90
21037;DHT22;10677;50.942;4.028;2024-02-21T02:28:26;9.80;99.90
21037;DHT22;10677;50.942;4.028;2024-02-21T02:30:52;9.80;99.90
21037;DHT22;10677;50.942;4.028;2024-02-21T02:33:18;9.80;99.90
21037;DHT22;10677;50.942;4.028;2024-02-21T02:35:44;9.80;99.90
21037;DHT22;10677;50.942;4.028;2024-02-21T02:38:10;9.80;99.90
21037;DHT22;10677;50.942;4.028;2024-02-21T02:40:38;9.90;99.90
21037;DHT22;10677;50.942;4.028;2024-02-21T02:43:05;10.00;99.90
21037;DHT22;10677;50.942;4.028;2024-02-21T02:45:31;10.00;99.90
21037;DHT22;10677;50.942;4.028;2024-02-21T02:47:57;10.00;99.90
21037;DHT22;10677;50.942;4.028;2024-02-21T02:50:25;10.00;99.90
21037;DHT22;10677;50.942;4.028;2024-02-21T02:52:51;10.10;99.90
21037;DHT22;10677;50.942;4.028;2024-02-21T02:55:17;10.00;99.90
21037;DHT22;10677;50.942;4.028;2024-02-21T02:57:43;9.90;99.90
21037;DHT22;10677;50.942;4.028;2024-02-21T03:00:12;9.90;99.90
21037;DHT22;10677;50.942;4.028;2024-02-21T03:02:43;9.70;99.90
21037;DHT22;10677;50.942;4.028;2024-02-21T03:05:18;9.60;99.90
21037;DHT22;10677;50.942;4.028;2024-02-21T03:07:44;9.60;99.90
21037;DHT22;10677;50.942;4.028;2024-02-21T03:10:10;9.60;99.90
21037;DHT22;10677;50.942;4.028;2024-02-21T03:12:37;9.50;99.90
21037;DHT22;10677;50.942;4.028;2024-02-21T03:15:03;9.50;99.90
21037;DHT22;10677;50.942;4.028;2024-02-21T03:17:30;9.40;99.90
21037;DHT22;10677;50.942;4.028;2024-02-21T03:19:55;9.40;99.90
21037;DHT22;10677;50.942;4.028;2024-02-21T03:22:22;9.50;99.90
21037;DHT22;10677;50.942;4.028;2024-02-21T03:24:48;9.50;99.90
21037;DHT22;10677;50.942;4.028;2024-02-21T03:27:13;9.60;99.90
21037;DHT22;10677;50.942;4.028;2024-02-21T03:29:39;9.50;99.90
21037;DHT22;10677;50.942;4.028;2024-02-21T03:32:05;9.60;99.90
21037;DHT22;10677;50.942;4.028;2024-02-21T03:34:30;9.50;99.90
21037;DHT22;10677;50.942;4.028;2024-02-21T03:36:56;9.50;99.90
21037;DHT22;10677;50.942;4.028;2024-02-21T03:39:21;9.50;99.90
21037;DHT22;10677;50.942;4.028;2024-02-21T03:41:47;9.50;99.90
21037;DHT22;10677;50.942;4.028;2024-02-21T03:44:13;9.50;99.90
21037;DHT22;10677;50.942;4.028;2024-02-21T03:46:39;9.50;99.90
21037;DHT22;10677;50.942;4.028;2024-02-21T03:49:04;9.40;99.90
21037;DHT22;10677;50.942;4.028;2024-02-21T03:51:30;9.40;99.90
21037;DHT22;10677;50.942;4.028;2024-02-21T03:53:56;9.30;99.90
21037;DHT22;10677;50.942;4.028;2024-02-21T03:56:22;9.30;99.90
21037;DHT22;10677;50.942;4.028;2024-02-21T03:58:48;9.30;99.90
21037;DHT22;10677;50.942;4.028;2024-02-21T04:01:15;9.40;99.90
21037;DHT22;10677;50.942;4.028;2024-02-21T04:03:41;9.40;99.90
21037;DHT22;10677;50.942;4.028;2024-02-21T04:06:07;9.40;99.90
21037;DHT22;10677;50.942;4.028;2024-02-21T04:08:33;9.50;99.90
21037;DHT22;10677;50.942;4.028;2024-02-21T04:10:59;9.50;99.90
21037;DHT22;10677;50.942;4.028;2024-02-21T04:13:24;9.40;99.90
21037;DHT22;10677;50.942;4.028;2024-02-21T04:15:51;9.50;99.90
21037;DHT22;10677;50.942;4.028;2024-02-21T04:18:16;9.40;99.90
21037;DHT22;10677;50.942;4.028;2024-02-21T04:20:42;9.40;99.90
21037;DHT22;10677;50.942;4.028;2024-02-21T04:23:42;9.40;99.90
21037;DHT22;10677;50.942;4.028;2024-02-21T04:26:07;9.50;99.90
21037;DHT22;10677;50.942;4.028;2024-02-21T04:28:33;9.50;99.90
21037;DHT22;10677;50.942;4.028;2024-02-21T04:30:59;9.50;99.90
21037;DHT22;10677;50.942;4.028;2024-02-21T04:33:24;9.60;99.90
21037;DHT22;10677;50.942;4.028;2024-02-21T04:35:50;9.60;99.90
21037;DHT22;10677;50.942;4.028;2024-02-21T04:38:15;9.60;99.90
21037;DHT22;10677;50.942;4.028;2024-02-21T04:40:41;9.50;99.90
21037;DHT22;10677;50.942;4.028;2024-02-21T04:43:07;9.60;99.90
21037;DHT22;10677;50.942;4.028;2024-02-21T04:45:32;9.60;99.90
21037;DHT22;10677;50.942;4.028;2024-02-21T04:47:58;9.60;99.90
21037;DHT22;10677;50.942;4.028;2024-02-21T04:50:23;9.60;99.90
21037;DHT22;10677;50.942;4.028;2024-02-21T04:52:49;9.60;99.90
21037;DHT22;10677;50.942;4.028;2024-02-21T04:55:16;9.60;99.90
21037;DHT22;10677;50.942;4.028;2024-02-21T04:57:42;9.70;99.90
21037;DHT22;10677;50.942;4.028;2024-02-21T05:00:08;9.60;99.90
21037;DHT22;10677;50.942;4.028;2024-02-21T05:02:34;9.60;99.90
21037;DHT22;10677;50.942;4.028;2024-02-21T05:05:00;9.60;99.90
21037;DHT22;10677;50.942;4.028;2024-02-21T05:07:25;9.60;99.90
21037;DHT22;10677;50.942;4.028;2024-02-21T05:09:51;9.60;99.90
21037;DHT22;10677;50.942;4.028;2024-02-21T05:12:17;9.50;99.90
21037;DHT22;10677;50.942;4.028;2024-02-21T05:14:42;9.50;99.90
21037;DHT22;10677;50.942;4.028;2024-02-21T05:17:08;9.50;99.90
21037;DHT22;10677;50.942;4.028;2024-02-21T05:19:33;9.50;99.90
21037;DHT22;10677;50.942;4.028;2024-02-21T05:21:59;9.60;99.90
21037;DHT22;10677;50.942;4.028;2024-02-21T05:24:25;9.60;99.90
21037;DHT22;10677;50.942;4.028;2024-02-21T05:26:51;9.60;99.90
21037;DHT22;10677;50.942;4.028;2024-02-21T05:29:16;9.70;99.90
21037;DHT22;10677;50.942;4.028;2024-02-21T05:34:21;9.70;99.90
21037;DHT22;10677;50.942;4.028;2024-02-21T05:36:47;9.60;99.90
21037;DHT22;10677;50.942;4.028;2024-02-21T05:39:15;9.60;99.90
21037;DHT22;10677;50.942;4.028;2024-02-21T05:41:41;9.60;99.90
21037;DHT22;10677;50.942;4.028;2024-02-21T05:44:07;9.60;99.90
21037;DHT22;10677;50.942;4.028;2024-02-21T05:46:33;9.60;99.90
21037;DHT22;10677;50.942;4.028;2024-02-21T05:48:58;9.50;99.90
21037;DHT22;10677;50.942;4.028;2024-02-21T05:51:24;9.50;99.90
21037;DHT22;10677;50.942;4.028;2024-02-21T05:53:50;9.60;99.90
21037;DHT22;10677;50.942;4.028;2024-02-21T05:56:15;9.60;99.90
21037;DHT22;10677;50.942;4.028;2024-02-21T05:58:42;9.60;99.90
21037;DHT22;10677;50.942;4.028;2024-02-21T06:01:08;9.60;99.90
21037;DHT22;10677;50.942;4.028;2024-02-21T06:03:33;9.60;99.90
21037;DHT22;10677;50.942;4.028;2024-02-21T06:06:00;9.70;99.90
21037;DHT22;10677;50.942;4.028;2024-02-21T06:08:25;9.80;99.90
21037;DHT22;10677;50.942;4.028;2024-02-21T06:10:51;9.80;99.90
21037;DHT22;10677;50.942;4.028;2024-02-21T06:13:26;9.70;99.90
21037;DHT22;10677;50.942;4.028;2024-02-21T06:15:52;9.70;99.90
21037;DHT22;10677;50.942;4.028;2024-02-21T06:18:19;9.70;99.90
21037;DHT22;10677;50.942;4.028;2024-02-21T06:20:45;9.70;99.90
21037;DHT22;10677;50.942;4.028;2024-02-21T06:23:12;9.70;99.90
21037;DHT22;10677;50.942;4.028;2024-02-21T06:25:38;9.70;99.90
21037;DHT22;10677;50.942;4.028;2024-02-21T06:28:04;9.80;99.90
21037;DHT22;10677;50.942;4.028;2024-02-21T06:30:30;9.70;99.90
21037;DHT22;10677;50.942;4.028;2024-02-21T06:32:56;9.80;99.90
21037;DHT22;10677;50.942;4.028;2024-02-21T06:35:22;9.80;99.90
21037;DHT22;10677;50.942;4.028;2024-02-21T06:37:53;9.80;99.90
21037;DHT22;10677;50.942;4.028;2024-02-21T06:40:21;9.90;99.90
21037;DHT22;10677;50.942;4.028;2024-02-21T06:42:47;9.80;99.90
21037;DHT22;10677;50.942;4.028;2024-02-21T06:45:13;9.90;99.90
21037;DHT22;10677;50.942;4.028;2024-02-21T06:47:39;9.90;99.90
21037;DHT22;10677;50.942;4.028;2024-02-21T06:50:05;9.90;99.90
21037;DHT22;10677;50.942;4.028;2024-02-21T06:52:31;9.90;99.90
21037;DHT22;10677;50.942;4.028;2024-02-21T06:54:57;9.90;99.90
21037;DHT22;10677;50.942;4.028;2024-02-21T06:57:23;10.00;99.90
21037;DHT22;10677;50.942;4.028;2024-02-21T06:59:49;10.00;99.90
21037;DHT22;10677;50.942;4.028;2024-02-21T07:02:15;9.90;99.90
21037;DHT22;10677;50.942;4.028;2024-02-21T07:04:41;10.00;99.90
21037;DHT22;10677;50.942;4.028;2024-02-21T07:07:07;10.10;99.90
21037;DHT22;10677;50.942;4.028;2024-02-21T07:09:32;10.10;99.90
21037;DHT22;10677;50.942;4.028;2024-02-21T07:11:59;10.10;99.90
21037;DHT22;10677;50.942;4.028;2024-02-21T07:14:25;10.10;99.90
21037;DHT22;10677;50.942;4.028;2024-02-21T07:16:51;10.00;99.90
21037;DHT22;10677;50.942;4.028;2024-02-21T07:19:17;10.10;99.90
21037;DHT22;10677;50.942;4.028;2024-02-21T07:21:43;10.10;99.90
21037;DHT22;10677;50.942;4.028;2024-02-21T07:24:09;10.20;99.90
21037;DHT22;10677;50.942;4.028;2024-02-21T07:26:34;10.10;99.90
21037;DHT22;10677;50.942;4.028;2024-02-21T07:29:00;10.20;99.90
21037;DHT22;10677;50.942;4.028;2024-02-21T07:31:26;10.10;99.90
21037;DHT22;10677;50.942;4.028;2024-02-21T07:33:52;10.20;99.90
21037;DHT22;10677;50.942;4.028;2024-02-21T07:36:29;10.20;99.90
21037;DHT22;10677;50.942;4.028;2024-02-21T07:38:58;10.10;99.90
21037;DHT22;10677;50.942;4.028;2024-02-21T07:41:27;10.00;99.90
21037;DHT22;10677;50.942;4.028;2024-02-21T07:43:57;10.00;99.90
21037;DHT22;10677;50.942;4.028;2024-02-21T07:46:24;10.00;99.90
21037;DHT22;10677;50.942;4.028;2024-02-21T07:48:51;10.00;99.90
21037;DHT22;10677;50.942;4.028;2024-02-21T07:51:18;10.00;99.90
21037;DHT22;10677;50.942;4.028;2024-02-21T07:53:46;10.10;99.90
21037;DHT22;10677;50.942;4.028;2024-02-21T07:56:14;10.10;99.90
21037;DHT22;10677;50.942;4.028;2024-02-21T07:58:42;10.10;99.90
21037;DHT22;10677;50.942;4.028;2024-02-21T08:01:08;10.10;99.90
21037;DHT22;10677;50.942;4.028;2024-02-21T08:03:35;10.20;99.90
21037;DHT22;10677;50.942;4.028;2024-02-21T08:06:02;10.20;99.90
21037;DHT22;10677;50.942;4.028;2024-02-21T08:08:29;10.20;99.90
21037;DHT22;10677;50.942;4.028;2024-02-21T08:10:55;10.20;99.90
21037;DHT22;10677;50.942;4.028;2024-02-21T08:13:21;10.10;99.90
21037;DHT22;10677;50.942;4.028;2024-02-21T08:15:47;10.20;99.90
21037;DHT22;10677;50.942;4.028;2024-02-21T08:18:13;10.10;99.90
21037;DHT22;10677;50.942;4.028;2024-02-21T08:20:38;10.20;99.90
21037;DHT22;10677;50.942;4.028;2024-02-21T08:23:04;10.30;99.90
21037;DHT22;10677;50.942;4.028;2024-02-21T08:25:30;10.30;99.90
21037;DHT22;10677;50.942;4.028;2024-02-21T08:27:58;10.30;99.90
21037;DHT22;10677;50.942;4.028;2024-02-21T08:30:25;10.30;99.90
21037;DHT22;10677;50.942;4.028;2024-02-21T08:32:50;10.10;99.90
21037;DHT22;10677;50.942;4.028;2024-02-21T08:35:17;10.10;99.90
21037;DHT22;10677;50.942;4.028;2024-02-21T08:37:44;10.10;99.90
21037;DHT22;10677;50.942;4.028;2024-02-21T08:40:14;10.00;99.90
21037;DHT22;10677;50.942;4.028;2024-02-21T08:42:43;10.00;99.90
21037;DHT22;10677;50.942;4.028;2024-02-21T08:45:09;10.00;99.90
21037;DHT22;10677;50.942;4.028;2024-02-21T08:47:34;10.10;99.90
21037;DHT22;10677;50.942;4.028;2024-02-21T08:50:04;10.10;99.90
21037;DHT22;10677;50.942;4.028;2024-02-21T08:52:31;10.20;99.90
21037;DHT22;10677;50.942;4.028;2024-02-21T08:54:57;10.10;99.90
21037;DHT22;10677;50.942;4.028;2024-02-21T08:57:23;10.30;99.90
21037;DHT22;10677;50.942;4.028;2024-02-21T08:59:48;10.30;99.90
21037;DHT22;10677;50.942;4.028;2024-02-21T09:02:14;10.20;99.90
21037;DHT22;10677;50.942;4.028;2024-02-21T09:04:43;10.20;99.90
21037;DHT22;10677;50.942;4.028;2024-02-21T09:07:09;10.20;99.90
21037;DHT22;10677;50.942;4.028;2024-02-21T09:09:35;10.20;99.90
21037;DHT22;10677;50.942;4.028;2024-02-21T09:12:01;10.30;99.90
21037;DHT22;10677;50.942;4.028;2024-02-21T09:14:32;10.40;99.90
21037;DHT22;10677;50.942;4.028;2024-02-21T09:16:57;10.50;99.90
21037;DHT22;10677;50.942;4.028;2024-02-21T09:19:23;10.50;99.90
21037;DHT22;10677;50.942;4.028;2024-02-21T09:21:49;10.60;99.90
21037;DHT22;10677;50.942;4.028;2024-02-21T09:24:14;10.60;99.90
21037;DHT22;10677;50.942;4.028;2024-02-21T09:26:40;10.70;99.90
21037;DHT22;10677;50.942;4.028;2024-02-21T09:29:06;10.60;99.90
21037;DHT22;10677;50.942;4.028;2024-02-21T09:31:32;10.60;99.90
21037;DHT22;10677;50.942;4.028;2024-02-21T09:33:58;10.60;99.90
21037;DHT22;10677;50.942;4.028;2024-02-21T09:36:24;10.60;99.90
21037;DHT22;10677;50.942;4.028;2024-02-21T09:38:50;10.60;99.90
21037;DHT22;10677;50.942;4.028;2024-02-21T09:41:17;10.70;99.90
21037;DHT22;10677;50.942;4.028;2024-02-21T09:43:44;10.80;99.90
21037;DHT22;10677;50.942;4.028;2024-02-21T09:46:18;10.80;99.90
21037;DHT22;10677;50.942;4.028;2024-02-21T09:48:58;10.90;99.90
21037;DHT22;10677;50.942;4.028;2024-02-21T09:51:30;11.00;99.90
21037;DHT22;10677;50.942;4.028;2024-02-21T09:53:57;11.00;99.90
21037;DHT22;10677;50.942;4.028;2024-02-21T09:56:23;10.90;99.90
21037;DHT22;10677;50.942;4.028;2024-02-21T09:58:49;10.80;99.90
21037;DHT22;10677;50.942;4.028;2024-02-21T10:01:14;10.80;99.90
21037;DHT22;10677;50.942;4.028;2024-02-21T10:03:42;10.80;99.90
21037;DHT22;10677;50.942;4.028;2024-02-21T10:06:09;10.80;99.90
21037;DHT22;10677;50.942;4.028;2024-02-21T10:08:35;10.90;99.90
21037;DHT22;10677;50.942;4.028;2024-02-21T10:11:00;11.00;99.90
21037;DHT22;10677;50.942;4.028;2024-02-21T10:13:29;11.00;99.90
21037;DHT22;10677;50.942;4.028;2024-02-21T10:16:05;11.10;99.90
21037;DHT22;10677;50.942;4.028;2024-02-21T10:18:32;11.00;99.90
21037;DHT22;10677;50.942;4.028;2024-02-21T10:21:05;11.10;99.90
21037;DHT22;10677;50.942;4.028;2024-02-21T10:23:46;11.00;99.90
21037;DHT22;10677;50.942;4.028;2024-02-21T10:26:12;11.00;99.90
21037;DHT22;10677;50.942;4.028;2024-02-21T10:28:38;11.00;99.90
21037;DHT22;10677;50.942;4.028;2024-02-21T10:31:09;11.00;99.90
21037;DHT22;10677;50.942;4.028;2024-02-21T10:33:35;11.10;99.90
21037;DHT22;10677;50.942;4.028;2024-02-21T10:36:11;11.00;99.90
21037;DHT22;10677;50.942;4.028;2024-02-21T10:38:37;11.00;99.90
21037;DHT22;10677;50.942;4.028;2024-02-21T10:41:05;10.90;99.90
21037;DHT22;10677;50.942;4.028;2024-02-21T10:43:40;11.00;99.90
21037;DHT22;10677;50.942;4.028;2024-02-21T10:46:09;10.90;99.90
21037;DHT22;10677;50.942;4.028;2024-02-21T10:48:43;11.00;99.90
21037;DHT22;10677;50.942;4.028;2024-02-21T10:51:17;11.10;99.90
21037;DHT22;10677;50.942;4.028;2024-02-21T10:56:32;11.20;99.90
21037;DHT22;10677;50.942;4.028;2024-02-21T10:59:07;11.10;99.90
21037;DHT22;10677;50.942;4.028;2024-02-21T11:01:33;11.20;99.90
21037;DHT22;10677;50.942;4.028;2024-02-21T11:04:08;11.20;99.90
21037;DHT22;10677;50.942;4.028;2024-02-21T11:06:38;11.00;99.90
21037;DHT22;10677;50.942;4.028;2024-02-21T11:09:05;10.90;99.90
21037;DHT22;10677;50.942;4.028;2024-02-21T11:11:35;11.00;99.90
21037;DHT22;10677;50.942;4.028;2024-02-21T11:14:20;11.10;99.90
21037;DHT22;10677;50.942;4.028;2024-02-21T11:16:47;11.10;99.90
21037;DHT22;10677;50.942;4.028;2024-02-21T11:19:27;11.10;99.90
21037;DHT22;10677;50.942;4.028;2024-02-21T11:21:54;11.20;99.90
21037;DHT22;10677;50.942;4.028;2024-02-21T11:24:30;11.20;99.90
21037;DHT22;10677;50.942;4.028;2024-02-21T11:27:07;11.30;99.90
21037;DHT22;10677;50.942;4.028;2024-02-21T11:29:33;11.10;99.90
21037;DHT22;10677;50.942;4.028;2024-02-21T11:32:09;11.10;99.90
21037;DHT22;10677;50.942;4.028;2024-02-21T11:34:35;11.10;99.90
21037;DHT22;10677;50.942;4.028;2024-02-21T11:37:01;11.10;99.90
21037;DHT22;10677;50.942;4.028;2024-02-21T11:39:26;11.10;99.90
21037;DHT22;10677;50.942;4.028;2024-02-21T11:42:06;11.20;99.90
21037;DHT22;10677;50.942;4.028;2024-02-21T11:44:34;11.10;99.90
21037;DHT22;10677;50.942;4.028;2024-02-21T11:47:00;11.20;99.90
21037;DHT22;10677;50.942;4.028;2024-02-21T11:49:30;11.30;99.90
21037;DHT22;10677;50.942;4.028;2024-02-21T11:52:03;11.10;99.90
21037;DHT22;10677;50.942;4.028;2024-02-21T11:54:33;11.10;99.90
21037;DHT22;10677;50.942;4.028;2024-02-21T11:56:59;11.20;99.90
21037;DHT22;10677;50.942;4.028;2024-02-21T11:59:25;11.20;99.90
21037;DHT22;10677;50.942;4.028;2024-02-21T12:01:52;11.30;99.90
21037;DHT22;10677;50.942;4.028;2024-02-21T12:04:18;11.30;99.90
21037;DHT22;10677;50.942;4.028;2024-02-21T12:06:49;11.20;99.90
21037;DHT22;10677;50.942;4.028;2024-02-21T12:09:16;11.20;99.90
21037;DHT22;10677;50.942;4.028;2024-02-21T12:11:42;11.30;99.90
21037;DHT22;10677;50.942;4.028;2024-02-21T12:14:08;11.20;99.90
21037;DHT22;10677;50.942;4.028;2024-02-21T12:16:35;11.20;99.90
21037;DHT22;10677;50.942;4.028;2024-02-21T12:19:04;11.30;99.90
21037;DHT22;10677;50.942;4.028;2024-02-21T12:21:31;11.30;99.90
21037;DHT22;10677;50.942;4.028;2024-02-21T12:23:58;11.30;99.90
21037;DHT22;10677;50.942;4.028;2024-02-21T12:26:24;11.30;99.90
21037;DHT22;10677;50.942;4.028;2024-02-21T12:28:50;11.40;99.90
21037;DHT22;10677;50.942;4.028;2024-02-21T12:31:16;11.40;99.90
21037;DHT22;10677;50.942;4.028;2024-02-21T12:33:45;11.30;99.90
21037;DHT22;10677;50.942;4.028;2024-02-21T12:36:11;11.30;99.90
21037;DHT22;10677;50.942;4.028;2024-02-21T12:38:37;11.30;99.90
21037;DHT22;10677;50.942;4.028;2024-02-21T12:41:03;11.40;99.90
21037;DHT22;10677;50.942;4.028;2024-02-21T12:43:28;11.50;99.90
21037;DHT22;10677;50.942;4.028;2024-02-21T12:45:54;11.60;99.90
21037;DHT22;10677;50.942;4.028;2024-02-21T12:48:20;11.70;99.90
21037;DHT22;10677;50.942;4.028;2024-02-21T12:50:50;11.70;99.90
21037;DHT22;10677;50.942;4.028;2024-02-21T12:53:17;11.70;99.90
21037;DHT22;10677;50.942;4.028;2024-02-21T12:55:45;11.70;99.90
21037;DHT22;10677;50.942;4.028;2024-02-21T12:58:10;11.70;99.90
21037;DHT22;10677;50.942;4.028;2024-02-21T13:00:36;11.70;99.90
21037;DHT22;10677;50.942;4.028;2024-02-21T13:03:03;11.70;99.90
21037;DHT22;10677;50.942;4.028;2024-02-21T13:05:29;11.70;99.90
21037;DHT22;10677;50.942;4.028;2024-02-21T13:07:54;11.80;99.90
21037;DHT22;10677;50.942;4.028;2024-02-21T13:10:20;11.70;99.90
21037;DHT22;10677;50.942;4.028;2024-02-21T13:12:47;11.60;99.90
21037;DHT22;10677;50.942;4.028;2024-02-21T13:15:12;11.60;99.90
21037;DHT22;10677;50.942;4.028;2024-02-21T13:17:38;11.60;99.90
21037;DHT22;10677;50.942;4.028;2024-02-21T13:20:05;11.70;99.90
21037;DHT22;10677;50.942;4.028;2024-02-21T13:22:31;11.70;99.90
21037;DHT22;10677;50.942;4.028;2024-02-21T13:24:57;11.70;99.90
21037;DHT22;10677;50.942;4.028;2024-02-21T13:27:22;11.60;99.90
21037;DHT22;10677;50.942;4.028;2024-02-21T13:29:48;11.60;99.90
21037;DHT22;10677;50.942;4.028;2024-02-21T13:32:14;11.60;99.90
21037;DHT22;10677;50.942;4.028;2024-02-21T13:34:41;11.40;99.90
21037;DHT22;10677;50.942;4.028;2024-02-21T13:37:07;11.30;99.90
21037;DHT22;10677;50.942;4.028;2024-02-21T13:39:35;11.20;99.90
21037;DHT22;10677;50.942;4.028;2024-02-21T13:42:01;11.20;99.90
21037;DHT22;10677;50.942;4.028;2024-02-21T13:44:27;11.20;99.90
21037;DHT22;10677;50.942;4.028;2024-02-21T13:46:53;11.30;99.90
21037;DHT22;10677;50.942;4.028;2024-02-21T13:49:19;11.20;99.90
21037;DHT22;10677;50.942;4.028;2024-02-21T13:51:45;11.10;99.90
21037;DHT22;10677;50.942;4.028;2024-02-21T13:54:11;11.10;99.90
21037;DHT22;10677;50.942;4.028;2024-02-21T13:56:39;11.00;99.90
21037;DHT22;10677;50.942;4.028;2024-02-21T13:59:05;11.00;99.90
21037;DHT22;10677;50.942;4.028;2024-02-21T14:01:31;10.90;99.90
21037;DHT22;10677;50.942;4.028;2024-02-21T14:04:00;10.90;99.90
21037;DHT22;10677;50.942;4.028;2024-02-21T14:06:25;10.90;99.90
21037;DHT22;10677;50.942;4.028;2024-02-21T14:08:51;11.00;99.90
21037;DHT22;10677;50.942;4.028;2024-02-21T14:11:16;10.90;99.90
21037;DHT22;10677;50.942;4.028;2024-02-21T14:13:42;11.00;99.90
21037;DHT22;10677;50.942;4.028;2024-02-21T14:16:11;10.90;99.90
21037;DHT22;10677;50.942;4.028;2024-02-21T14:18:40;10.80;99.90
21037;DHT22;10677;50.942;4.028;2024-02-21T14:21:09;10.80;99.90
21037;DHT22;10677;50.942;4.028;2024-02-21T14:23:38;10.80;99.90
21037;DHT22;10677;50.942;4.028;2024-02-21T14:26:04;10.80;99.90
21037;DHT22;10677;50.942;4.028;2024-02-21T14:28:30;10.80;99.90
21037;DHT22;10677;50.942;4.028;2024-02-21T14:30:56;10.80;99.90
21037;DHT22;10677;50.942;4.028;2024-02-21T14:33:29;10.80;99.90
21037;DHT22;10677;50.942;4.028;2024-02-21T14:35:56;10.80;99.90
21037;DHT22;10677;50.942;4.028;2024-02-21T14:38:22;10.80;99.90
21037;DHT22;10677;50.942;4.028;2024-02-21T14:40:47;10.70;99.90
21037;DHT22;10677;50.942;4.028;2024-02-21T14:43:13;10.70;99.90
21037;DHT22;10677;50.942;4.028;2024-02-21T14:45:39;10.60;99.90
21037;DHT22;10677;50.942;4.028;2024-02-21T14:48:05;10.60;99.90
21037;DHT22;10677;50.942;4.028;2024-02-21T14:50:31;10.60;99.90
21037;DHT22;10677;50.942;4.028;2024-02-21T14:52:56;10.50;99.90
21037;DHT22;10677;50.942;4.028;2024-02-21T14:55:22;10.50;99.90
21037;DHT22;10677;50.942;4.028;2024-02-21T14:57:49;10.50;99.90
21037;DHT22;10677;50.942;4.028;2024-02-21T15:00:15;10.50;99.90
21037;DHT22;10677;50.942;4.028;2024-02-21T15:02:41;10.50;99.90
21037;DHT22;10677;50.942;4.028;2024-02-21T15:05:08;10.50;99.90
21037;DHT22;10677;50.942;4.028;2024-02-21T15:07:34;10.40;99.90
21037;DHT22;10677;50.942;4.028;2024-02-21T15:10:00;10.40;99.90
21037;DHT22;10677;50.942;4.028;2024-02-21T15:12:25;10.50;99.90
21037;DHT22;10677;50.942;4.028;2024-02-21T15:14:51;10.50;99.90
21037;DHT22;10677;50.942;4.028;2024-02-21T15:17:17;10.50;99.90
21037;DHT22;10677;50.942;4.028;2024-02-21T15:19:43;10.50;99.90
21037;DHT22;10677;50.942;4.028;2024-02-21T15:22:13;10.40;99.90
21037;DHT22;10677;50.942;4.028;2024-02-21T15:24:39;10.40;99.90
21037;DHT22;10677;50.942;4.028;2024-02-21T15:27:05;10.40;99.90
21037;DHT22;10677;50.942;4.028;2024-02-21T15:29:31;10.40;99.90
21037;DHT22;10677;50.942;4.028;2024-02-21T15:31:57;10.30;99.90
21037;DHT22;10677;50.942;4.028;2024-02-21T15:34:23;10.30;99.90
21037;DHT22;10677;50.942;4.028;2024-02-21T15:36:49;10.30;99.90
21037;DHT22;10677;50.942;4.028;2024-02-21T15:39:14;10.20;99.90